Time;durP1;ratioP1;P1;durP2;ratioP2;P2;SDS_P1;SDS_P2;PMS_P1;PMS_P2;Temp;Humidity;BMP_temperature;BMP_pressure;BME280_temperature;BME280_humidity;BME280_pressure;Samples;Min_cycle;Max_cycle;Signal;HPM_P1;HPM_P2
2021/07/27 00:02:46;;;;;;;9.15;8.20;;;;;;;18.98;71.63;99792.66;2085241;83;21041;-74
2021/07/27 00:05:48;;;;;;;11.80;9.08;;;;;;;18.98;71.69;99786.47;2076786;82;21095;-75
2021/07/27 00:08:49;;;;;;;9.28;8.05;;;;;;;19.00;71.78;99787.86;2079084;82;22034;-73
2021/07/27 00:11:51;;;;;;;9.63;8.63;;;;;;;19.01;71.85;99796.77;2099742;82;21072;-73
2021/07/27 00:14:53;;;;;;;9.18;7.72;;;;;;;19.00;71.89;99800.48;2086789;82;21037;-76
2021/07/27 00:17:54;;;;;;;9.75;8.65;;;;;;;18.98;71.93;99796.70;2083620;82;21663;-74
2021/07/27 00:20:58;;;;;;;9.90;8.80;;;;;;;18.99;71.90;99789.45;2086695;83;21124;-76
2021/07/27 00:23:59;;;;;;;10.58;8.33;;;;;;;19.00;72.04;99799.95;2095655;82;21014;-75
2021/07/27 00:27:01;;;;;;;11.63;8.18;;;;;;;19.02;72.06;99801.08;2094165;82;21064;-78
2021/07/27 00:30:07;;;;;;;9.20;8.30;;;;;;;19.04;72.12;99803.02;2092889;82;21996;-73
2021/07/27 00:33:09;;;;;;;10.43;8.18;;;;;;;19.04;72.29;99798.98;2096720;82;21041;-74
2021/07/27 00:36:10;;;;;;;9.55;7.97;;;;;;;19.04;72.35;99794.95;2093323;82;21017;-76
2021/07/27 00:39:12;;;;;;;11.65;8.90;;;;;;;19.04;72.43;99799.80;2089222;82;21042;-76
2021/07/27 00:42:14;;;;;;;9.25;8.00;;;;;;;19.03;72.66;99798.17;2093617;82;21075;-74
2021/07/27 00:45:16;;;;;;;10.15;8.05;;;;;;;19.03;72.68;99798.67;2094969;82;21118;-74
2021/07/27 00:48:18;;;;;;;11.22;7.80;;;;;;;19.01;72.81;99786.02;2079603;83;21070;-73
2021/07/27 00:51:19;;;;;;;11.48;8.48;;;;;;;19.01;72.87;99791.39;2093529;83;21076;-74
2021/07/27 00:54:21;;;;;;;11.48;7.67;;;;;;;18.99;73.00;99789.45;2099334;82;21119;-78
2021/07/27 00:57:24;;;;;;;17.12;8.58;;;;;;;18.95;73.04;99783.72;2097432;82;21122;-75
2021/07/27 01:00:26;;;;;;;9.48;8.48;;;;;;;18.95;73.13;99786.91;2105095;82;21033;-75
2021/07/27 01:03:28;;;;;;;8.75;7.65;;;;;;;18.94;73.21;99783.94;2084191;83;22416;-73
2021/07/27 01:06:30;;;;;;;10.03;7.78;;;;;;;18.90;73.27;99780.89;2089083;83;21591;-81
2021/07/27 01:09:32;;;;;;;10.70;8.58;;;;;;;18.90;73.32;99782.23;2085029;83;21143;-74
2021/07/27 01:12:34;;;;;;;9.53;8.53;;;;;;;18.88;73.36;99789.70;2091402;83;21095;-81
2021/07/27 01:15:35;;;;;;;10.85;7.62;;;;;;;18.86;73.44;99799.85;2088573;82;21176;-74
2021/07/27 01:18:45;;;;;;;10.03;8.48;;;;;;;18.83;73.57;99794.13;2085910;82;21064;-77
2021/07/27 01:44:45;;;;;;;9.38;7.58;;;;;;;18.64;74.53;99804.06;2089393;82;21120;-79
2021/07/27 01:47:47;;;;;;;10.63;7.28;;;;;;;18.64;74.60;99808.94;2095284;82;21125;-74
2021/07/27 01:50:48;;;;;;;9.08;7.30;;;;;;;18.60;74.65;99811.23;2106353;82;21034;-73
2021/07/27 01:53:54;;;;;;;9.70;6.80;;;;;;;18.59;74.70;99810.13;2095676;82;21123;-76
2021/07/27 01:56:56;;;;;;;7.87;6.17;;;;;;;18.58;74.65;99803.09;2090818;83;21025;-74
2021/07/27 02:03:24;;;;;;;10.55;6.58;;;;;;;18.57;74.68;99816.25;2105776;82;21130;-76
2021/07/27 02:06:26;;;;;;;11.40;7.45;;;;;;;18.56;74.66;99815.96;2084825;82;21648;-75
2021/07/27 02:09:32;;;;;;;9.73;7.15;;;;;;;18.54;74.68;99810.80;2089797;82;21132;-74
2021/07/27 02:12:39;;;;;;;7.92;6.78;;;;;;;18.54;74.76;99815.36;2082200;82;21643;-77
2021/07/27 02:15:42;;;;;;;10.80;6.08;;;;;;;18.53;74.76;99825.30;2089924;83;21120;-75
2021/07/27 02:18:43;;;;;;;7.37;6.65;;;;;;;18.51;74.60;99833.27;2088038;82;21047;-78
2021/07/27 02:21:45;;;;;;;8.68;6.08;;;;;;;18.48;74.66;99841.27;2074504;82;21113;-79
2021/07/27 02:24:47;;;;;;;8.83;5.95;;;;;;;18.47;74.53;99830.23;2103816;82;21128;-73
2021/07/27 02:27:48;;;;;;;15.48;6.08;;;;;;;18.43;74.54;99835.73;2081458;83;21679;-77
2021/07/27 02:30:55;;;;;;;6.87;6.15;;;;;;;18.41;74.41;99830.28;2090478;82;21076;-74
2021/07/27 02:33:53;;;;;;;11.95;6.67;;;;;;;18.36;74.70;99833.67;2094736;83;21065;-77
2021/07/27 02:36:55;;;;;;;8.13;6.08;;;;;;;18.28;74.62;99829.94;2076421;82;22246;-73
2021/07/27 02:39:57;;;;;;;8.60;6.05;;;;;;;18.26;74.74;99838.20;2099443;82;22308;-77
2021/07/27 02:43:04;;;;;;;8.43;7.20;;;;;;;18.22;74.62;99840.23;2078638;83;21100;-78
2021/07/27 02:46:05;;;;;;;9.38;7.00;;;;;;;18.20;74.67;99845.00;2102240;82;21017;-78
2021/07/27 02:49:07;;;;;;;11.40;6.53;;;;;;;18.14;74.73;99825.23;2081533;83;21556;-77
2021/07/27 02:52:09;;;;;;;9.35;6.30;;;;;;;18.11;74.78;99826.50;2102554;82;20997;-76
2021/07/27 02:55:11;;;;;;;9.18;6.35;;;;;;;18.07;74.75;99818.57;2088971;83;21609;-73
2021/07/27 02:58:21;;;;;;;8.18;6.87;;;;;;;18.03;74.81;99813.89;2095358;82;22295;-73
2021/07/27 03:01:23;;;;;;;9.20;7.35;;;;;;;17.83;74.75;99818.94;2102547;83;21020;-74
2021/07/27 03:04:24;;;;;;;7.33;6.60;;;;;;;17.77;74.98;99821.14;2082598;83;21066;-76
2021/07/27 03:07:34;;;;;;;11.03;7.58;;;;;;;17.68;75.18;99829.14;2099624;83;21068;-80
2021/07/27 03:10:29;;;;;;;10.43;7.83;;;;;;;17.66;75.55;99836.09;2093195;82;21003;-74
2021/07/27 03:13:31;;;;;;;7.20;6.45;;;;;;;17.65;75.52;99837.64;2082099;82;21049;-81
2021/07/27 03:16:32;;;;;;;8.50;6.78;;;;;;;17.54;75.49;99850.42;2099839;83;21088;-74
2021/07/27 03:19:34;;;;;;;9.43;7.53;;;;;;;17.49;75.45;99859.14;2098307;83;21064;-74
2021/07/27 03:22:37;;;;;;;10.60;7.83;;;;;;;17.46;75.90;99863.08;2091458;82;21019;-78
2021/07/27 03:25:39;;;;;;;9.53;7.17;;;;;;;17.35;76.23;99866.46;2090520;82;21073;-81
2021/07/27 03:28:41;;;;;;;11.70;7.78;;;;;;;17.29;76.14;99861.97;2080891;82;21046;-78
2021/07/27 03:31:43;;;;;;;11.03;7.05;;;;;;;17.17;76.36;99862.34;2103300;83;21027;-75
2021/07/27 03:34:45;;;;;;;8.23;7.12;;;;;;;17.13;76.57;99857.13;2094784;83;21027;-81
2021/07/27 03:37:46;;;;;;;8.75;7.53;;;;;;;17.18;76.62;99858.64;2095143;82;21124;-75
2021/07/27 03:40:48;;;;;;;8.60;7.70;;;;;;;17.23;76.67;99852.09;2090127;83;21057;-80
2021/07/27 03:43:50;;;;;;;12.43;7.15;;;;;;;17.27;76.62;99853.31;2092202;82;21058;-73
2021/07/27 03:46:53;;;;;;;9.18;7.87;;;;;;;17.32;76.86;99859.38;2086685;82;21058;-78
2021/07/27 03:49:54;;;;;;;13.20;8.35;;;;;;;17.40;76.98;99862.62;2084606;82;21025;-75
2021/07/27 03:52:56;;;;;;;10.03;7.78;;;;;;;17.49;77.12;99871.22;2098614;82;21529;-75
2021/07/27 03:55:58;;;;;;;8.38;7.05;;;;;;;17.62;77.23;99886.37;2092691;83;21088;-74
2021/07/27 03:58:59;;;;;;;9.40;7.58;;;;;;;17.96;77.34;99887.76;2097876;82;21589;-76
2021/07/27 04:02:01;;;;;;;9.93;8.23;;;;;;;18.36;77.07;99884.17;2086802;83;22009;-74
2021/07/27 04:05:06;;;;;;;10.90;7.35;;;;;;;18.54;76.45;99887.90;2092431;82;21001;-73
2021/07/27 04:08:07;;;;;;;16.15;8.60;;;;;;;18.52;76.23;99900.73;2088185;82;21027;-76
2021/07/27 04:11:09;;;;;;;23.42;8.40;;;;;;;18.57;76.20;99912.97;2103250;82;21018;-75
2021/07/27 04:14:11;;;;;;;13.72;8.55;;;;;;;18.61;76.21;99918.18;2089374;82;21057;-75
2021/07/27 04:20:20;;;;;;;9.43;8.35;;;;;;;18.71;76.25;99921.17;2090438;83;21017;-78
2021/07/27 04:23:22;;;;;;;12.93;8.13;;;;;;;18.88;76.33;99912.54;2097407;82;21025;-81
2021/07/27 04:26:23;;;;;;;14.58;8.70;;;;;;;19.21;76.40;99915.61;2081791;82;21095;-79
2021/07/27 04:29:25;;;;;;;10.70;7.60;;;;;;;19.50;76.13;99910.43;2084839;82;21045;-74
2021/07/27 04:32:27;;;;;;;9.25;8.35;;;;;;;19.72;75.71;99910.75;2103703;82;21103;-77
2021/07/27 04:35:28;;;;;;;10.80;8.38;;;;;;;19.79;75.26;99916.83;2099072;82;21667;-77
2021/07/27 04:38:30;;;;;;;11.65;8.53;;;;;;;19.80;75.16;99906.91;2096943;82;21540;-76
2021/07/27 04:41:36;;;;;;;10.90;7.97;;;;;;;19.86;75.10;99909.47;2087492;82;21747;-76
2021/07/27 04:44:38;;;;;;;13.05;7.83;;;;;;;20.07;75.23;99902.67;2099994;82;21030;-76
2021/07/27 04:47:40;;;;;;;9.38;7.33;;;;;;;20.26;74.77;99901.22;2088456;83;21114;-78
2021/07/27 04:50:44;;;;;;;12.50;8.28;;;;;;;20.25;74.38;99897.72;2082557;83;21187;-79
2021/07/27 04:53:47;;;;;;;8.80;7.55;;;;;;;20.20;74.34;99898.12;2076117;82;21132;-78
2021/07/27 04:56:48;;;;;;;9.73;7.83;;;;;;;20.20;74.26;99900.83;2094396;83;21089;-74
2021/07/27 04:59:50;;;;;;;8.85;7.95;;;;;;;20.22;74.19;99914.34;2101609;82;21150;-78
2021/07/27 05:02:51;;;;;;;12.05;8.18;;;;;;;20.23;74.15;99921.37;2091804;83;21078;-74
2021/07/27 05:05:53;;;;;;;10.28;7.75;;;;;;;20.23;74.00;99923.25;2089395;82;21058;-82
2021/07/27 05:08:55;;;;;;;11.18;8.85;;;;;;;20.23;74.01;99934.02;2090893;82;21162;-76
2021/07/27 05:11:59;;;;;;;10.08;8.28;;;;;;;20.23;73.89;99935.38;2085369;83;21047;-74
2021/07/27 05:15:01;;;;;;;9.35;8.28;;;;;;;20.18;73.77;99940.09;2094847;82;21675;-79
2021/07/27 05:18:03;;;;;;;10.85;7.78;;;;;;;20.12;73.74;99940.51;2083986;82;21080;-71
2021/07/27 05:21:04;;;;;;;13.62;7.97;;;;;;;20.03;73.67;99942.45;2097357;82;21562;-74
2021/07/27 05:24:06;;;;;;;10.55;8.00;;;;;;;19.90;73.84;99934.87;2089359;83;21615;-75
2021/07/27 05:27:08;;;;;;;10.28;7.72;;;;;;;19.80;73.97;99941.36;2089326;82;21054;-79
2021/07/27 05:30:12;;;;;;;13.80;7.80;;;;;;;19.81;74.37;99939.48;2101708;82;21141;-81
2021/07/27 05:33:13;;;;;;;10.43;8.15;;;;;;;19.84;74.32;99954.64;2074384;83;21092;-75
2021/07/27 05:36:14;;;;;;;10.63;8.73;;;;;;;19.85;74.15;99950.08;2082006;82;21148;-74
2021/07/27 05:39:16;;;;;;;14.85;8.08;;;;;;;19.86;74.31;99948.52;2071088;82;22372;-76
2021/07/27 05:42:18;;;;;;;10.50;8.00;;;;;;;19.93;74.42;99946.55;2080188;83;21127;-75
2021/07/27 05:45:19;;;;;;;9.98;7.55;;;;;;;20.27;74.72;99946.80;2086184;82;21062;-76
2021/07/27 05:48:21;;;;;;;11.65;8.18;;;;;;;20.58;74.23;99946.98;2076690;83;21142;-74
2021/07/27 05:51:24;;;;;;;11.95;7.95;;;;;;;20.80;73.86;99947.15;2091790;82;21449;-74
2021/07/27 05:54:26;;;;;;;8.05;6.95;;;;;;;20.99;73.60;99955.09;2085357;82;22439;-74
2021/07/27 05:57:27;;;;;;;10.05;7.60;;;;;;;21.13;73.24;99952.94;2081768;82;21084;-77
2021/07/27 06:00:30;;;;;;;10.18;8.38;;;;;;;21.27;72.79;99962.37;2099850;82;21121;-76
2021/07/27 06:03:32;;;;;;;8.48;7.08;;;;;;;21.36;72.66;99959.58;2091158;82;21060;-75
2021/07/27 06:06:34;;;;;;;8.58;7.33;;;;;;;21.47;72.43;99954.69;2097999;82;21626;-77
2021/07/27 06:09:35;;;;;;;9.35;6.45;;;;;;;21.59;72.25;99952.45;2098677;82;21151;-73
2021/07/27 06:12:37;;;;;;;8.65;6.87;;;;;;;21.76;72.11;99949.23;2115670;82;21107;-71
2021/07/27 06:15:39;;;;;;;9.08;6.53;;;;;;;22.18;71.89;99955.61;2094906;82;21056;-73
2021/07/27 06:18:41;;;;;;;9.03;6.97;;;;;;;22.77;71.57;99950.48;2087070;82;21040;-76
2021/07/27 06:21:42;;;;;;;7.22;6.00;;;;;;;23.51;70.45;99945.14;2086449;82;21034;-72
2021/07/27 06:24:44;;;;;;;8.28;6.67;;;;;;;24.22;69.74;99946.27;2078682;83;21052;-73
2021/07/27 06:27:45;;;;;;;10.58;5.83;;;;;;;24.89;68.59;99951.55;2102313;82;21507;-73
2021/07/27 06:30:47;;;;;;;7.00;4.58;;;;;;;25.36;67.32;99954.68;2093635;82;21002;-74
2021/07/27 06:33:49;;;;;;;7.03;5.30;;;;;;;25.72;65.65;99960.17;2094888;83;21081;-75
2021/07/27 06:36:50;;;;;;;8.90;4.83;;;;;;;26.16;65.15;99958.30;2104759;82;21132;-74
2021/07/27 06:39:52;;;;;;;6.40;4.67;;;;;;;26.58;64.09;99957.13;2099580;82;21118;-76
2021/07/27 06:42:53;;;;;;;6.28;4.40;;;;;;;26.83;63.11;99957.06;2096100;82;21078;-74
2021/07/27 06:45:56;;;;;;;6.42;4.53;;;;;;;26.98;61.85;99949.92;2090943;83;21091;-73
2021/07/27 06:49:00;;;;;;;5.90;3.98;;;;;;;27.16;61.43;99951.21;2089990;83;21038;-77
2021/07/27 06:52:01;;;;;;;4.95;4.05;;;;;;;27.64;60.88;99952.25;2106079;82;21093;-77
2021/07/27 06:55:05;;;;;;;6.15;3.85;;;;;;;28.02;59.40;99945.72;2086510;82;21087;-77
2021/07/27 06:58:06;;;;;;;8.13;3.90;;;;;;;28.32;58.52;99952.77;2078556;82;21096;-74
2021/07/27 07:01:11;;;;;;;10.65;3.98;;;;;;;28.52;57.61;99946.86;2077048;83;21360;-77
2021/07/27 07:04:12;;;;;;;4.42;3.90;;;;;;;28.75;56.99;99952.08;2084438;82;21639;-75
2021/07/27 07:07:14;;;;;;;4.67;4.28;;;;;;;28.81;56.03;99953.08;2079560;82;22263;-81
2021/07/27 07:10:16;;;;;;;7.45;4.22;;;;;;;28.93;55.22;99953.20;2092842;83;21061;-78
2021/07/27 07:13:17;;;;;;;5.53;4.00;;;;;;;28.99;54.75;99954.20;2088770;83;21124;-75
2021/07/27 07:16:19;;;;;;;6.92;4.42;;;;;;;29.11;54.48;99947.53;2088678;82;22262;-72
2021/07/27 07:19:20;;;;;;;6.80;4.33;;;;;;;29.17;53.81;99947.71;2092793;82;21104;-73
2021/07/27 07:22:22;;;;;;;3.67;3.33;;;;;;;29.33;53.35;99938.19;2085598;82;21080;-73
2021/07/27 07:25:24;;;;;;;6.22;4.10;;;;;;;29.70;52.95;99935.19;2098579;83;21539;-72
2021/07/27 07:28:25;;;;;;;4.22;3.47;;;;;;;30.11;52.84;99935.88;2095442;82;21060;-74
2021/07/27 07:31:27;;;;;;;5.62;3.47;;;;;;;30.50;52.28;99939.54;2100809;82;21097;-74
2021/07/27 07:34:30;;;;;;;7.42;3.52;;;;;;;31.05;49.56;99935.95;2095785;82;21095;-73
2021/07/27 07:37:32;;;;;;;5.45;4.00;;;;;;;31.05;49.56;99935.95;2093384;83;21125;-73
2021/07/27 07:40:33;;;;;;;6.22;3.58;;;;;;;31.03;49.72;99940.95;2090617;83;21630;-72
2021/07/27 07:43:35;;;;;;;7.90;3.83;;;;;;;31.22;49.03;99940.78;2091122;82;21125;-72
2021/07/27 07:46:37;;;;;;;5.28;3.65;;;;;;;31.27;48.02;99938.73;2101439;82;21184;-74
2021/07/27 07:49:39;;;;;;;7.17;4.40;;;;;;;31.33;46.55;99931.77;2096772;82;21053;-74
2021/07/27 07:52:40;;;;;;;5.90;3.85;;;;;;;31.20;47.60;99943.84;2083126;82;21201;-74
2021/07/27 07:55:42;;;;;;;6.47;3.65;;;;;;;31.24;47.49;99937.98;2090046;83;21120;-72
2021/07/27 07:58:45;;;;;;;9.50;3.95;;;;;;;31.54;47.44;99934.32;2096439;82;21164;-72
2021/07/27 08:01:48;;;;;;;7.28;4.22;;;;;;;31.80;46.99;99934.49;2098306;82;22033;-71
2021/07/27 08:04:49;;;;;;;9.78;3.85;;;;;;;31.92;46.44;99936.12;2084818;83;21018;-73
2021/07/27 08:07:51;;;;;;;5.72;3.77;;;;;;;31.97;45.79;99939.30;2105715;82;21034;-72
2021/07/27 08:10:53;;;;;;;6.80;4.00;;;;;;;31.81;45.88;99944.33;2095666;82;21035;-76
2021/07/27 08:13:57;;;;;;;5.03;4.05;;;;;;;31.81;45.72;99943.52;2096557;82;22014;-72
2021/07/27 08:16:59;;;;;;;5.35;3.65;;;;;;;31.78;45.74;99939.47;2091574;83;21056;-72
2021/07/27 08:20:02;;;;;;;7.87;3.60;;;;;;;31.62;45.23;99945.91;2093216;82;21034;-73
2021/07/27 08:23:04;;;;;;;5.42;3.62;;;;;;;31.61;45.24;99947.59;2107225;82;21053;-73
2021/07/27 08:26:06;;;;;;;7.03;3.50;;;;;;;31.83;45.04;99946.20;2094368;82;22026;-73
2021/07/27 08:29:08;;;;;;;5.45;3.40;;;;;;;32.04;44.75;99952.56;2081266;82;21029;-74
2021/07/27 08:32:10;;;;;;;7.55;3.55;;;;;;;32.15;44.38;99951.17;2095124;83;21061;-71
2021/07/27 08:35:13;;;;;;;5.53;3.98;;;;;;;32.25;44.24;99950.11;2103778;82;21596;-76
2021/07/27 08:38:15;;;;;;;7.90;3.80;;;;;;;32.31;44.52;99954.33;2101789;82;22098;-71
2021/07/27 08:41:20;;;;;;;4.47;3.80;;;;;;;32.43;43.88;99946.87;2095415;82;21069;-74
2021/07/27 08:44:22;;;;;;;5.58;4.03;;;;;;;32.60;43.16;99956.00;2096724;82;21009;-72
2021/07/27 08:47:24;;;;;;;5.03;3.85;;;;;;;32.60;42.82;99962.06;2086293;83;21049;-73
2021/07/27 08:50:27;;;;;;;6.80;3.87;;;;;;;32.55;42.88;99963.03;2095536;83;21010;-73
2021/07/27 08:53:28;;;;;;;8.48;4.12;;;;;;;32.70;42.82;99965.09;2096948;82;21039;-72
2021/07/27 08:56:30;;;;;;;4.30;3.90;;;;;;;32.74;42.18;99964.13;2091201;83;21082;-80
2021/07/27 08:59:32;;;;;;;9.05;3.77;;;;;;;32.79;42.33;99960.43;2106568;82;21495;-75
2021/07/27 09:02:33;;;;;;;5.85;3.40;;;;;;;33.13;42.03;99961.09;2097275;82;21669;-78
2021/07/27 09:05:36;;;;;;;9.03;4.03;;;;;;;32.95;41.10;99963.55;2098191;82;21086;-86
2021/07/27 09:08:37;;;;;;;6.33;3.65;;;;;;;32.83;41.32;99965.52;2088928;82;21025;-76
2021/07/27 09:11:48;;;;;;;8.98;3.70;;;;;;;32.96;41.34;99970.08;2093803;83;21073;-74
2021/07/27 09:14:50;;;;;;;9.50;3.75;;;;;;;33.00;39.78;99965.61;2084488;83;21565;-79
2021/07/27 09:18:01;;;;;;;5.78;3.83;;;;;;;32.62;40.41;99967.25;2085256;82;21641;-75
2021/07/27 09:21:03;;;;;;;6.83;4.05;;;;;;;32.67;40.64;99973.98;2093189;82;22032;-75
2021/07/27 09:24:06;;;;;;;5.80;3.45;;;;;;;32.85;40.22;99974.83;2096344;82;21010;-79
2021/07/27 09:27:08;;;;;;;4.25;3.15;;;;;;;32.84;39.66;99974.59;2099466;82;21037;-73
2021/07/27 09:30:21;;;;;;;4.53;2.95;;;;;;;32.79;40.08;99965.35;2107433;82;21112;-75
2021/07/27 09:33:30;;;;;;;6.08;3.42;;;;;;;32.98;39.34;99973.33;2084429;82;21128;-77
2021/07/27 09:36:32;;;;;;;15.20;3.83;;;;;;;32.86;38.63;99968.19;2072779;83;21046;-79
2021/07/27 09:39:35;;;;;;;5.33;3.15;;;;;;;32.76;38.40;99973.43;2093645;81;21567;-74
2021/07/27 09:42:39;;;;;;;4.50;3.10;;;;;;;32.77;38.58;99978.59;2085709;81;20973;-74
2021/07/27 09:45:41;;;;;;;3.83;3.05;;;;;;;32.85;38.69;99978.37;2097822;82;21065;-77
2021/07/27 09:48:45;;;;;;;4.30;3.30;;;;;;;32.76;38.33;99977.55;2091161;82;21099;-66
2021/07/27 09:51:49;;;;;;;6.25;3.35;;;;;;;32.83;38.68;99971.01;2081536;83;21065;-65
2021/07/27 09:54:52;;;;;;;7.70;3.60;;;;;;;33.03;38.55;99978.70;2096355;82;21041;-78
2021/07/27 09:57:54;;;;;;;6.58;3.45;;;;;;;33.30;38.13;99977.36;2086809;83;21093;-80
2021/07/27 10:01:12;;;;;;;6.17;3.50;;;;;;;33.38;37.49;99970.48;2093278;82;20991;-76
2021/07/27 10:04:17;;;;;;;6.05;3.30;;;;;;;33.45;37.52;99980.99;2097295;83;21050;-77
2021/07/27 10:07:29;;;;;;;4.92;3.45;;;;;;;33.28;37.23;99976.30;2095954;83;22246;-77
2021/07/27 10:10:38;;;;;;;8.00;3.40;;;;;;;33.29;37.81;99974.38;2078352;82;21089;-77
2021/07/27 10:13:48;;;;;;;4.25;3.50;;;;;;;33.15;38.38;99972.58;2083556;82;21718;-78
2021/07/27 10:16:52;;;;;;;8.58;4.12;;;;;;;33.49;38.26;99977.86;2096545;82;21521;-78
2021/07/27 10:19:57;;;;;;;6.03;3.65;;;;;;;33.61;38.05;99970.36;2097476;82;21049;-77
2021/07/27 10:22:58;;;;;;;9.58;4.33;;;;;;;33.73;38.00;99963.61;2092798;83;21045;-76
2021/07/27 10:25:59;;;;;;;9.88;4.65;;;;;;;33.71;37.32;99967.28;2093748;83;21085;-76
2021/07/27 10:29:02;;;;;;;6.67;4.10;;;;;;;33.70;37.96;99971.98;2088887;82;21079;-77
2021/07/27 10:32:18;;;;;;;7.67;4.30;;;;;;;33.73;37.74;99971.87;2081933;83;21674;-78
2021/07/27 10:35:34;;;;;;;7.12;3.50;;;;;;;33.66;37.60;99962.74;2091006;82;21037;-78
2021/07/27 10:38:39;;;;;;;6.12;3.47;;;;;;;33.43;37.16;99964.83;2082039;81;21024;-76
2021/07/27 10:41:52;;;;;;;11.33;3.45;;;;;;;33.26;36.89;99957.95;2106281;83;21044;-78
2021/07/27 10:44:54;;;;;;;10.38;4.00;;;;;;;33.29;37.34;99957.31;2098113;82;21019;-77
2021/07/27 10:47:57;;;;;;;5.37;3.80;;;;;;;33.28;36.33;99953.50;2099555;82;21574;-80
2021/07/27 10:51:00;;;;;;;4.92;3.20;;;;;;;33.36;37.55;99965.06;2098340;82;21376;-78
2021/07/27 10:54:04;;;;;;;4.33;3.60;;;;;;;33.33;37.13;99963.77;2106150;82;21041;-76
2021/07/27 10:57:07;;;;;;;5.10;3.17;;;;;;;33.07;37.37;99962.37;2105837;82;21094;-79
2021/07/27 11:00:11;;;;;;;7.83;4.10;;;;;;;33.08;36.45;99965.36;2075527;82;21111;-78
2021/07/27 11:03:12;;;;;;;4.12;3.20;;;;;;;32.96;36.45;99968.70;2084765;83;22026;-79
2021/07/27 11:06:14;;;;;;;6.45;3.60;;;;;;;33.20;36.53;99964.75;2068032;82;21664;-80
2021/07/27 11:09:15;;;;;;;5.97;3.65;;;;;;;33.31;36.68;99966.59;2090005;83;21129;-78
2021/07/27 11:12:33;;;;;;;4.60;3.37;;;;;;;33.32;36.93;99965.48;2086137;83;21000;-78
2021/07/27 11:15:35;;;;;;;5.95;3.47;;;;;;;33.34;35.83;99964.03;2090735;82;21040;-78
2021/07/27 11:18:40;;;;;;;5.75;3.72;;;;;;;33.20;35.42;99955.13;2096840;82;21024;-78
2021/07/27 11:21:42;;;;;;;6.28;3.15;;;;;;;33.03;35.84;99949.85;2052824;83;21142;-78
2021/07/27 11:24:44;;;;;;;7.95;3.33;;;;;;;33.20;36.04;99954.56;2102204;82;21060;-78
2021/07/27 11:27:46;;;;;;;4.40;2.80;;;;;;;33.35;35.91;99951.09;2080500;83;21572;-78
2021/07/27 11:30:48;;;;;;;4.28;3.15;;;;;;;33.51;35.22;99950.02;2091583;82;21099;-78
2021/07/27 11:33:54;;;;;;;12.15;3.70;;;;;;;33.88;35.16;99950.74;2083135;82;22035;-78
2021/07/27 11:36:57;;;;;;;5.20;3.33;;;;;;;33.92;34.27;99937.12;2091106;82;21124;-78
2021/07/27 11:39:59;;;;;;;9.73;3.42;;;;;;;33.61;34.47;99949.16;2089181;82;21080;-81
2021/07/27 11:43:11;;;;;;;4.55;3.58;;;;;;;33.31;33.97;99946.81;2088453;82;21071;-78
2021/07/27 11:46:18;;;;;;;3.75;3.25;;;;;;;33.07;34.44;99943.71;2075717;83;21076;-78
2021/07/27 11:49:20;;;;;;;7.55;3.62;;;;;;;32.91;34.99;99946.06;2088789;83;21057;-78
2021/07/27 11:52:30;;;;;;;7.75;3.27;;;;;;;32.72;34.79;99946.34;2097150;82;21111;-78
2021/07/27 11:55:37;;;;;;;8.20;3.70;;;;;;;32.60;35.19;99949.13;2100044;82;21951;-78
2021/07/27 11:58:39;;;;;;;4.60;3.17;;;;;;;32.70;35.68;99948.62;2097051;82;21037;-74
2021/07/27 12:01:43;;;;;;;11.68;3.87;;;;;;;32.80;35.19;99951.05;2103628;82;21651;-75
2021/07/27 12:04:44;;;;;;;9.45;4.12;;;;;;;32.57;35.30;99938.78;2079632;83;21045;-76
2021/07/27 12:07:46;;;;;;;9.83;3.58;;;;;;;32.33;35.77;99941.11;2101564;83;22571;-78
2021/07/27 12:10:48;;;;;;;3.98;3.30;;;;;;;32.13;35.97;99947.39;2103983;82;21026;-77
2021/07/27 12:13:49;;;;;;;5.25;2.98;;;;;;;32.02;37.43;99946.61;2087617;82;22577;-79
2021/07/27 12:16:51;;;;;;;3.58;3.27;;;;;;;31.70;36.22;99938.28;2067231;84;21014;-78
2021/07/27 12:19:53;;;;;;;5.58;3.40;;;;;;;31.42;36.46;99934.88;2073393;84;21479;-79
2021/07/27 12:22:54;;;;;;;7.15;3.40;;;;;;;31.26;36.79;99941.23;2087991;82;21066;-77
2021/07/27 12:25:56;;;;;;;8.93;4.08;;;;;;;31.24;37.34;99931.13;2104244;82;21026;-78
2021/07/27 12:28:58;;;;;;;7.75;3.67;;;;;;;31.41;37.30;99931.87;2094373;82;21282;-78
2021/07/27 12:31:59;;;;;;;8.63;3.42;;;;;;;31.70;37.74;99927.31;2094579;82;21057;-78
2021/07/27 12:35:01;;;;;;;18.82;4.30;;;;;;;32.00;37.05;99924.95;2099875;82;21596;-80
2021/07/27 12:38:03;;;;;;;5.15;3.40;;;;;;;32.14;36.88;99918.81;2084867;82;21091;-81
2021/07/27 12:41:04;;;;;;;9.30;3.52;;;;;;;32.26;37.03;99914.09;2086769;83;21140;-78
2021/07/27 12:44:06;;;;;;;5.67;3.40;;;;;;;32.43;36.51;99902.94;2087941;82;21160;-80
2021/07/27 12:47:08;;;;;;;4.35;3.30;;;;;;;32.45;36.38;99902.87;2091398;82;21545;-83
2021/07/27 12:50:11;;;;;;;4.15;3.33;;;;;;;32.36;35.95;99893.80;2092151;83;21046;-81
2021/07/27 12:53:13;;;;;;;5.33;3.45;;;;;;;32.30;36.55;99894.51;2088164;83;21109;-78
2021/07/27 12:56:14;;;;;;;5.28;3.50;;;;;;;32.23;36.53;99887.85;2086050;82;21066;-77
2021/07/27 12:59:16;;;;;;;3.77;3.37;;;;;;;32.25;36.82;99891.09;2106916;82;21076;-78
2021/07/27 13:02:22;;;;;;;4.60;3.40;;;;;;;32.29;36.58;99887.95;2092924;83;21124;-73
2021/07/27 13:05:21;;;;;;;4.50;3.30;;;;;;;32.18;36.86;99882.50;2095966;83;22966;-76
2021/07/27 13:08:23;;;;;;;4.08;3.40;;;;;;;32.11;36.56;99890.63;2089484;83;21076;-76
2021/07/27 13:11:26;;;;;;;3.85;3.47;;;;;;;32.01;36.55;99886.78;2088209;82;21058;-76
2021/07/27 13:14:28;;;;;;;4.80;3.98;;;;;;;32.00;36.69;99889.86;2089218;83;21073;-78
2021/07/27 13:17:29;;;;;;;3.72;3.37;;;;;;;32.10;37.05;99886.81;2101038;82;21026;-75
2021/07/27 13:20:31;;;;;;;6.95;3.20;;;;;;;32.03;37.06;99885.91;2097766;82;21030;-76
2021/07/27 13:23:33;;;;;;;5.70;3.35;;;;;;;31.96;36.95;99887.48;2095644;82;21021;-76
2021/07/27 13:26:34;;;;;;;6.33;3.52;;;;;;;31.85;37.18;99884.19;2104421;83;21111;-75
2021/07/27 13:29:38;;;;;;;5.70;3.85;;;;;;;31.76;37.71;99885.48;2098151;83;21140;-75
2021/07/27 13:32:40;;;;;;;6.65;3.40;;;;;;;31.80;37.95;99878.83;2094819;83;21131;-76
2021/07/27 13:35:42;;;;;;;3.92;3.30;;;;;;;31.79;37.39;99866.22;2083350;82;21043;-75
2021/07/27 13:38:43;;;;;;;5.83;3.40;;;;;;;31.74;37.67;99865.81;2081288;83;21537;-75
2021/07/27 13:41:45;;;;;;;5.97;3.45;;;;;;;31.62;37.48;99864.19;2102223;82;21044;-78
2021/07/27 13:44:47;;;;;;;7.92;3.75;;;;;;;31.59;37.45;99857.40;2099933;82;21001;-75
2021/07/27 13:47:48;;;;;;;10.93;3.58;;;;;;;31.55;37.27;99859.16;2083217;82;21061;-79
2021/07/27 13:50:50;;;;;;;4.55;3.70;;;;;;;31.58;37.72;99859.91;2096503;83;20997;-82
2021/07/27 13:53:58;;;;;;;8.73;3.52;;;;;;;31.51;37.45;99857.34;2087971;82;21503;-78
2021/07/27 13:56:56;;;;;;;19.77;4.55;;;;;;;31.53;37.94;99860.59;2097179;82;21028;-74
2021/07/27 13:59:58;;;;;;;6.10;3.33;;;;;;;31.46;37.52;99866.53;2087172;83;21028;-79
2021/07/27 14:03:00;;;;;;;4.53;3.58;;;;;;;31.40;37.72;99859.55;2102715;82;21509;-79
2021/07/27 14:06:01;;;;;;;7.28;3.55;;;;;;;31.25;37.42;99851.93;2087070;83;21099;-76
2021/07/27 14:09:03;;;;;;;6.05;3.50;;;;;;;31.14;37.32;99847.81;2096196;82;21144;-75
2021/07/27 14:12:05;;;;;;;3.47;3.17;;;;;;;31.13;37.14;99848.92;2096044;82;21009;-76
2021/07/27 14:15:08;;;;;;;6.10;3.30;;;;;;;31.14;37.81;99849.72;2103722;82;21060;-75
2021/07/27 14:18:10;;;;;;;4.83;3.33;;;;;;;31.24;37.10;99848.11;2090251;82;21004;-76
2021/07/27 14:21:11;;;;;;;8.63;4.47;;;;;;;31.36;37.10;99842.91;2072601;82;21049;-75
2021/07/27 14:24:13;;;;;;;4.55;3.52;;;;;;;31.42;36.92;99845.80;2095728;82;21146;-74
2021/07/27 14:27:15;;;;;;;3.22;2.90;;;;;;;31.32;35.59;99847.38;2081511;83;20993;-75
2021/07/27 14:30:17;;;;;;;5.55;3.33;;;;;;;31.11;35.25;99845.67;2084031;83;21109;-76
2021/07/27 14:33:19;;;;;;;7.35;3.50;;;;;;;30.84;35.08;99846.59;2098457;82;21080;-75
2021/07/27 14:36:21;;;;;;;5.25;3.62;;;;;;;30.64;35.23;99856.59;2088522;82;21099;-76
2021/07/27 14:39:22;;;;;;;5.40;3.65;;;;;;;30.33;35.41;99848.46;2101000;82;21057;-78
2021/07/27 14:42:24;;;;;;;3.80;3.40;;;;;;;30.11;35.73;99846.40;2102029;82;21678;-77
2021/07/27 14:45:27;;;;;;;5.55;3.62;;;;;;;30.09;36.81;99849.18;2093517;82;21035;-78
2021/07/27 14:48:28;;;;;;;3.70;3.30;;;;;;;30.22;36.72;99844.31;2092424;82;21993;-76